sensor_id;sensor_type;location;lat;lon;timestamp;P1;durP1;ratioP1;P2;durP2;ratioP2
20076;SDS011;12348;42.710;23.378;2023-06-10T00:01:33;19.40;;;10.10;;
20076;SDS011;12348;42.710;23.378;2023-06-10T00:04:01;16.60;;;10.07;;
20076;SDS011;12348;42.710;23.378;2023-06-10T00:06:30;17.30;;;10.37;;
20076;SDS011;12348;42.710;23.378;2023-06-10T00:09:00;17.07;;;10.23;;
20076;SDS011;12348;42.710;23.378;2023-06-10T00:11:29;16.37;;;9.53;;
20076;SDS011;12348;42.710;23.378;2023-06-10T00:13:56;12.20;;;8.87;;
20076;SDS011;12348;42.710;23.378;2023-06-10T00:16:23;14.87;;;9.00;;
20076;SDS011;12348;42.710;23.378;2023-06-10T00:18:50;15.03;;;9.50;;
20076;SDS011;12348;42.710;23.378;2023-06-10T00:21:17;12.57;;;9.70;;
20076;SDS011;12348;42.710;23.378;2023-06-10T00:23:45;18.17;;;9.13;;
20076;SDS011;12348;42.710;23.378;2023-06-10T00:26:12;10.53;;;8.47;;
20076;SDS011;12348;42.710;23.378;2023-06-10T00:28:39;14.13;;;9.60;;
20076;SDS011;12348;42.710;23.378;2023-06-10T00:31:06;15.57;;;10.17;;
20076;SDS011;12348;42.710;23.378;2023-06-10T00:33:33;13.00;;;10.27;;
20076;SDS011;12348;42.710;23.378;2023-06-10T00:36:00;15.77;;;9.97;;
20076;SDS011;12348;42.710;23.378;2023-06-10T00:38:27;18.30;;;9.90;;
20076;SDS011;12348;42.710;23.378;2023-06-10T00:40:55;14.27;;;10.17;;
20076;SDS011;12348;42.710;23.378;2023-06-10T00:43:22;15.73;;;10.93;;
20076;SDS011;12348;42.710;23.378;2023-06-10T00:45:49;12.83;;;9.47;;
20076;SDS011;12348;42.710;23.378;2023-06-10T00:48:16;13.97;;;9.60;;
20076;SDS011;12348;42.710;23.378;2023-06-10T00:50:44;15.17;;;9.40;;
20076;SDS011;12348;42.710;23.378;2023-06-10T00:53:11;13.97;;;9.60;;
20076;SDS011;12348;42.710;23.378;2023-06-10T00:55:38;14.13;;;8.93;;
20076;SDS011;12348;42.710;23.378;2023-06-10T00:58:09;14.17;;;8.73;;
20076;SDS011;12348;42.710;23.378;2023-06-10T01:00:36;11.57;;;9.27;;
20076;SDS011;12348;42.710;23.378;2023-06-10T01:03:03;12.73;;;8.57;;
20076;SDS011;12348;42.710;23.378;2023-06-10T01:05:32;13.27;;;8.97;;
20076;SDS011;12348;42.710;23.378;2023-06-10T01:08:01;12.17;;;9.33;;
20076;SDS011;12348;42.710;23.378;2023-06-10T01:10:33;16.13;;;9.50;;
20076;SDS011;12348;42.710;23.378;2023-06-10T01:13:05;13.03;;;9.27;;
20076;SDS011;12348;42.710;23.378;2023-06-10T01:15:37;11.63;;;8.03;;
20076;SDS011;12348;42.710;23.378;2023-06-10T01:18:05;12.33;;;8.80;;
20076;SDS011;12348;42.710;23.378;2023-06-10T01:20:34;14.67;;;9.40;;
20076;SDS011;12348;42.710;23.378;2023-06-10T01:23:06;13.13;;;8.47;;
20076;SDS011;12348;42.710;23.378;2023-06-10T01:25:36;12.83;;;8.47;;
20076;SDS011;12348;42.710;23.378;2023-06-10T01:28:07;11.50;;;7.77;;
20076;SDS011;12348;42.710;23.378;2023-06-10T01:30:41;9.03;;;7.07;;
20076;SDS011;12348;42.710;23.378;2023-06-10T01:33:12;10.13;;;6.97;;
20076;SDS011;12348;42.710;23.378;2023-06-10T01:35:43;8.13;;;6.90;;
20076;SDS011;12348;42.710;23.378;2023-06-10T01:38:13;8.87;;;7.33;;
20076;SDS011;12348;42.710;23.378;2023-06-10T01:40:42;10.77;;;7.17;;
20076;SDS011;12348;42.710;23.378;2023-06-10T01:43:09;10.00;;;7.57;;
20076;SDS011;12348;42.710;23.378;2023-06-10T01:45:36;12.17;;;7.37;;
20076;SDS011;12348;42.710;23.378;2023-06-10T01:48:02;10.80;;;7.07;;
20076;SDS011;12348;42.710;23.378;2023-06-10T01:50:29;11.80;;;7.90;;
20076;SDS011;12348;42.710;23.378;2023-06-10T01:52:57;9.57;;;7.63;;
20076;SDS011;12348;42.710;23.378;2023-06-10T01:55:26;12.53;;;8.10;;
20076;SDS011;12348;42.710;23.378;2023-06-10T01:57:52;14.27;;;8.40;;
20076;SDS011;12348;42.710;23.378;2023-06-10T02:00:19;12.07;;;7.80;;
20076;SDS011;12348;42.710;23.378;2023-06-10T02:02:46;12.43;;;8.07;;
20076;SDS011;12348;42.710;23.378;2023-06-10T02:05:13;11.63;;;8.03;;
20076;SDS011;12348;42.710;23.378;2023-06-10T02:07:39;13.73;;;8.63;;
20076;SDS011;12348;42.710;23.378;2023-06-10T02:10:06;10.77;;;8.60;;
20076;SDS011;12348;42.710;23.378;2023-06-10T02:12:36;10.33;;;8.77;;
20076;SDS011;12348;42.710;23.378;2023-06-10T02:15:02;10.07;;;8.30;;
20076;SDS011;12348;42.710;23.378;2023-06-10T02:17:30;12.33;;;8.60;;
20076;SDS011;12348;42.710;23.378;2023-06-10T02:19:57;12.57;;;8.90;;
20076;SDS011;12348;42.710;23.378;2023-06-10T02:22:24;12.20;;;9.13;;
20076;SDS011;12348;42.710;23.378;2023-06-10T02:24:51;12.77;;;9.63;;
20076;SDS011;12348;42.710;23.378;2023-06-10T02:27:18;11.70;;;9.27;;
20076;SDS011;12348;42.710;23.378;2023-06-10T02:29:47;16.10;;;10.40;;
20076;SDS011;12348;42.710;23.378;2023-06-10T02:32:13;14.67;;;10.80;;
20076;SDS011;12348;42.710;23.378;2023-06-10T02:34:41;18.63;;;11.37;;
20076;SDS011;12348;42.710;23.378;2023-06-10T02:37:08;20.17;;;11.60;;
20076;SDS011;12348;42.710;23.378;2023-06-10T02:39:35;14.43;;;10.37;;
20076;SDS011;12348;42.710;23.378;2023-06-10T02:42:02;17.07;;;11.17;;
20076;SDS011;12348;42.710;23.378;2023-06-10T02:44:30;16.13;;;12.50;;
20076;SDS011;12348;42.710;23.378;2023-06-10T02:46:58;17.00;;;12.93;;
20076;SDS011;12348;42.710;23.378;2023-06-10T02:49:25;16.83;;;11.57;;
20076;SDS011;12348;42.710;23.378;2023-06-10T02:51:53;15.80;;;12.23;;
20076;SDS011;12348;42.710;23.378;2023-06-10T02:54:20;15.13;;;11.73;;
20076;SDS011;12348;42.710;23.378;2023-06-10T02:56:47;18.27;;;12.00;;
20076;SDS011;12348;42.710;23.378;2023-06-10T02:59:14;17.77;;;12.47;;
20076;SDS011;12348;42.710;23.378;2023-06-10T03:01:41;19.30;;;13.10;;
20076;SDS011;12348;42.710;23.378;2023-06-10T03:04:10;16.97;;;12.37;;
20076;SDS011;12348;42.710;23.378;2023-06-10T03:06:38;19.70;;;12.23;;
20076;SDS011;12348;42.710;23.378;2023-06-10T03:09:06;19.00;;;13.30;;
20076;SDS011;12348;42.710;23.378;2023-06-10T03:11:33;16.93;;;12.20;;
20076;SDS011;12348;42.710;23.378;2023-06-10T03:14:00;19.50;;;12.67;;
20076;SDS011;12348;42.710;23.378;2023-06-10T03:16:26;28.57;;;18.03;;
20076;SDS011;12348;42.710;23.378;2023-06-10T03:18:55;28.40;;;20.37;;
20076;SDS011;12348;42.710;23.378;2023-06-10T03:21:23;27.07;;;15.67;;
20076;SDS011;12348;42.710;23.378;2023-06-10T03:23:50;19.93;;;13.40;;
20076;SDS011;12348;42.710;23.378;2023-06-10T03:26:17;18.57;;;10.93;;
20076;SDS011;12348;42.710;23.378;2023-06-10T03:28:46;15.00;;;10.13;;
20076;SDS011;12348;42.710;23.378;2023-06-10T03:31:13;14.33;;;10.43;;
20076;SDS011;12348;42.710;23.378;2023-06-10T03:33:41;16.13;;;10.57;;
20076;SDS011;12348;42.710;23.378;2023-06-10T03:36:08;15.00;;;10.23;;
20076;SDS011;12348;42.710;23.378;2023-06-10T03:38:37;15.27;;;10.00;;
20076;SDS011;12348;42.710;23.378;2023-06-10T03:41:04;18.00;;;10.30;;
20076;SDS011;12348;42.710;23.378;2023-06-10T03:43:31;18.77;;;10.67;;
20076;SDS011;12348;42.710;23.378;2023-06-10T03:45:58;16.77;;;9.90;;
20076;SDS011;12348;42.710;23.378;2023-06-10T03:48:25;16.57;;;10.43;;
20076;SDS011;12348;42.710;23.378;2023-06-10T03:50:52;15.47;;;10.80;;
20076;SDS011;12348;42.710;23.378;2023-06-10T03:53:19;15.37;;;10.73;;
20076;SDS011;12348;42.710;23.378;2023-06-10T03:55:48;17.07;;;10.60;;
20076;SDS011;12348;42.710;23.378;2023-06-10T03:58:15;19.90;;;11.43;;
20076;SDS011;12348;42.710;23.378;2023-06-10T04:00:43;25.23;;;12.63;;
20076;SDS011;12348;42.710;23.378;2023-06-10T04:03:10;17.37;;;12.03;;
20076;SDS011;12348;42.710;23.378;2023-06-10T04:05:39;17.17;;;11.43;;
20076;SDS011;12348;42.710;23.378;2023-06-10T04:08:06;18.93;;;11.60;;
20076;SDS011;12348;42.710;23.378;2023-06-10T04:10:33;15.37;;;11.37;;
20076;SDS011;12348;42.710;23.378;2023-06-10T04:13:01;19.77;;;12.37;;
20076;SDS011;12348;42.710;23.378;2023-06-10T04:15:29;16.70;;;11.33;;
20076;SDS011;12348;42.710;23.378;2023-06-10T04:17:57;19.63;;;12.00;;
20076;SDS011;12348;42.710;23.378;2023-06-10T04:20:24;15.03;;;10.40;;
20076;SDS011;12348;42.710;23.378;2023-06-10T04:22:51;16.27;;;11.40;;
20076;SDS011;12348;42.710;23.378;2023-06-10T04:25:18;17.20;;;11.33;;
20076;SDS011;12348;42.710;23.378;2023-06-10T04:27:45;15.13;;;10.87;;
20076;SDS011;12348;42.710;23.378;2023-06-10T04:30:16;15.10;;;10.87;;
20076;SDS011;12348;42.710;23.378;2023-06-10T04:32:43;17.87;;;11.27;;
20076;SDS011;12348;42.710;23.378;2023-06-10T04:35:11;16.20;;;11.10;;
20076;SDS011;12348;42.710;23.378;2023-06-10T04:37:41;17.30;;;12.70;;
20076;SDS011;12348;42.710;23.378;2023-06-10T04:40:11;16.80;;;12.30;;
20076;SDS011;12348;42.710;23.378;2023-06-10T04:42:38;16.90;;;12.33;;
20076;SDS011;12348;42.710;23.378;2023-06-10T04:45:06;19.77;;;11.97;;
20076;SDS011;12348;42.710;23.378;2023-06-10T04:47:35;21.20;;;11.00;;
20076;SDS011;12348;42.710;23.378;2023-06-10T04:50:02;16.10;;;10.37;;
20076;SDS011;12348;42.710;23.378;2023-06-10T04:52:29;15.63;;;11.10;;
20076;SDS011;12348;42.710;23.378;2023-06-10T04:54:57;22.20;;;13.03;;
20076;SDS011;12348;42.710;23.378;2023-06-10T04:57:24;15.87;;;11.83;;
20076;SDS011;12348;42.710;23.378;2023-06-10T04:59:51;16.93;;;11.70;;
20076;SDS011;12348;42.710;23.378;2023-06-10T05:02:18;14.03;;;10.87;;
20076;SDS011;12348;42.710;23.378;2023-06-10T05:04:47;30.90;;;19.20;;
20076;SDS011;12348;42.710;23.378;2023-06-10T05:07:14;18.77;;;11.73;;
20076;SDS011;12348;42.710;23.378;2023-06-10T05:09:41;14.93;;;10.83;;
20076;SDS011;12348;42.710;23.378;2023-06-10T05:12:08;17.10;;;11.07;;
20076;SDS011;12348;42.710;23.378;2023-06-10T05:14:35;16.90;;;11.70;;
20076;SDS011;12348;42.710;23.378;2023-06-10T05:17:01;17.43;;;10.63;;
20076;SDS011;12348;42.710;23.378;2023-06-10T05:19:33;16.67;;;12.20;;
20076;SDS011;12348;42.710;23.378;2023-06-10T05:22:03;19.10;;;11.43;;
20076;SDS011;12348;42.710;23.378;2023-06-10T05:24:30;17.77;;;12.63;;
20076;SDS011;12348;42.710;23.378;2023-06-10T05:26:57;19.77;;;13.23;;
20076;SDS011;12348;42.710;23.378;2023-06-10T05:29:24;27.97;;;13.83;;
20076;SDS011;12348;42.710;23.378;2023-06-10T05:31:51;24.37;;;12.97;;
20076;SDS011;12348;42.710;23.378;2023-06-10T05:34:18;28.67;;;15.93;;
20076;SDS011;12348;42.710;23.378;2023-06-10T05:36:45;18.33;;;13.40;;
20076;SDS011;12348;42.710;23.378;2023-06-10T05:39:13;22.53;;;14.27;;
20076;SDS011;12348;42.710;23.378;2023-06-10T05:41:40;22.53;;;13.43;;
20076;SDS011;12348;42.710;23.378;2023-06-10T05:44:07;28.27;;;12.83;;
20076;SDS011;12348;42.710;23.378;2023-06-10T05:46:34;19.07;;;13.73;;
20076;SDS011;12348;42.710;23.378;2023-06-10T05:49:01;43.57;;;27.17;;
20076;SDS011;12348;42.710;23.378;2023-06-10T05:51:27;24.63;;;13.83;;
20076;SDS011;12348;42.710;23.378;2023-06-10T05:53:54;18.27;;;12.10;;
20076;SDS011;12348;42.710;23.378;2023-06-10T05:56:22;17.97;;;11.60;;
20076;SDS011;12348;42.710;23.378;2023-06-10T05:58:50;16.50;;;11.13;;
20076;SDS011;12348;42.710;23.378;2023-06-10T06:01:17;17.23;;;11.13;;
20076;SDS011;12348;42.710;23.378;2023-06-10T06:03:44;17.77;;;10.13;;
20076;SDS011;12348;42.710;23.378;2023-06-10T06:06:11;18.33;;;11.63;;
20076;SDS011;12348;42.710;23.378;2023-06-10T06:08:37;12.07;;;9.83;;
20076;SDS011;12348;42.710;23.378;2023-06-10T06:11:04;11.40;;;9.20;;
20076;SDS011;12348;42.710;23.378;2023-06-10T06:13:33;14.87;;;10.03;;
20076;SDS011;12348;42.710;23.378;2023-06-10T06:15:59;16.00;;;9.97;;
20076;SDS011;12348;42.710;23.378;2023-06-10T06:18:26;42.30;;;21.03;;
20076;SDS011;12348;42.710;23.378;2023-06-10T06:20:53;17.43;;;10.17;;
20076;SDS011;12348;42.710;23.378;2023-06-10T06:23:19;18.90;;;8.97;;
20076;SDS011;12348;42.710;23.378;2023-06-10T06:25:46;16.03;;;8.50;;
20076;SDS011;12348;42.710;23.378;2023-06-10T06:28:13;15.53;;;9.53;;
20076;SDS011;12348;42.710;23.378;2023-06-10T06:30:41;17.23;;;9.73;;
20076;SDS011;12348;42.710;23.378;2023-06-10T06:33:08;12.33;;;8.97;;
20076;SDS011;12348;42.710;23.378;2023-06-10T06:35:34;13.80;;;9.80;;
20076;SDS011;12348;42.710;23.378;2023-06-10T06:38:03;13.27;;;9.50;;
20076;SDS011;12348;42.710;23.378;2023-06-10T06:40:30;14.33;;;10.13;;
20076;SDS011;12348;42.710;23.378;2023-06-10T06:42:56;27.30;;;15.83;;
20076;SDS011;12348;42.710;23.378;2023-06-10T06:45:23;18.17;;;13.07;;
20076;SDS011;12348;42.710;23.378;2023-06-10T06:47:51;14.23;;;10.67;;
20076;SDS011;12348;42.710;23.378;2023-06-10T06:50:18;19.33;;;13.83;;
20076;SDS011;12348;42.710;23.378;2023-06-10T06:52:45;19.43;;;15.37;;
20076;SDS011;12348;42.710;23.378;2023-06-10T06:55:12;29.23;;;17.47;;
20076;SDS011;12348;42.710;23.378;2023-06-10T06:57:39;26.20;;;17.87;;
20076;SDS011;12348;42.710;23.378;2023-06-10T07:00:06;38.27;;;21.20;;
20076;SDS011;12348;42.710;23.378;2023-06-10T07:02:34;24.90;;;16.27;;
20076;SDS011;12348;42.710;23.378;2023-06-10T07:05:02;26.57;;;19.73;;
20076;SDS011;12348;42.710;23.378;2023-06-10T07:07:29;31.20;;;24.70;;
20076;SDS011;12348;42.710;23.378;2023-06-10T07:09:56;41.13;;;26.87;;
20076;SDS011;12348;42.710;23.378;2023-06-10T07:12:23;28.77;;;20.17;;
20076;SDS011;12348;42.710;23.378;2023-06-10T07:14:50;28.10;;;15.33;;
20076;SDS011;12348;42.710;23.378;2023-06-10T07:17:17;15.23;;;9.23;;
20076;SDS011;12348;42.710;23.378;2023-06-10T07:19:44;17.07;;;11.73;;
20076;SDS011;12348;42.710;23.378;2023-06-10T07:22:12;12.10;;;8.57;;
20076;SDS011;12348;42.710;23.378;2023-06-10T07:24:39;16.00;;;11.10;;
20076;SDS011;12348;42.710;23.378;2023-06-10T07:27:06;15.27;;;9.10;;
20076;SDS011;12348;42.710;23.378;2023-06-10T07:29:33;11.03;;;8.17;;
20076;SDS011;12348;42.710;23.378;2023-06-10T07:32:00;9.97;;;6.53;;
20076;SDS011;12348;42.710;23.378;2023-06-10T07:34:28;11.87;;;8.20;;
20076;SDS011;12348;42.710;23.378;2023-06-10T07:36:55;10.20;;;5.93;;
20076;SDS011;12348;42.710;23.378;2023-06-10T07:39:23;8.23;;;5.90;;
20076;SDS011;12348;42.710;23.378;2023-06-10T07:41:50;10.60;;;6.43;;
20076;SDS011;12348;42.710;23.378;2023-06-10T07:44:18;8.77;;;5.07;;
20076;SDS011;12348;42.710;23.378;2023-06-10T07:46:45;7.82;;;4.75;;
20076;SDS011;12348;42.710;23.378;2023-06-10T07:49:13;7.57;;;4.65;;
20076;SDS011;12348;42.710;23.378;2023-06-10T07:51:39;4.90;;;3.80;;
20076;SDS011;12348;42.710;23.378;2023-06-10T07:54:06;6.07;;;3.50;;
20076;SDS011;12348;42.710;23.378;2023-06-10T07:56:34;4.43;;;3.65;;
20076;SDS011;12348;42.710;23.378;2023-06-10T07:59:01;5.25;;;4.10;;
20076;SDS011;12348;42.710;23.378;2023-06-10T08:01:27;4.50;;;4.05;;
20076;SDS011;12348;42.710;23.378;2023-06-10T08:03:55;4.78;;;4.15;;
20076;SDS011;12348;42.710;23.378;2023-06-10T08:06:21;5.30;;;4.00;;
20076;SDS011;12348;42.710;23.378;2023-06-10T08:08:48;5.85;;;3.67;;
20076;SDS011;12348;42.710;23.378;2023-06-10T08:11:15;6.75;;;3.65;;
20076;SDS011;12348;42.710;23.378;2023-06-10T08:13:43;4.28;;;3.85;;
20076;SDS011;12348;42.710;23.378;2023-06-10T08:16:10;7.25;;;3.85;;
20076;SDS011;12348;42.710;23.378;2023-06-10T08:18:36;4.70;;;3.58;;
20076;SDS011;12348;42.710;23.378;2023-06-10T08:21:03;6.20;;;3.30;;
20076;SDS011;12348;42.710;23.378;2023-06-10T08:23:30;3.88;;;3.22;;
20076;SDS011;12348;42.710;23.378;2023-06-10T08:25:57;4.18;;;3.53;;
20076;SDS011;12348;42.710;23.378;2023-06-10T08:28:24;4.32;;;2.78;;
20076;SDS011;12348;42.710;23.378;2023-06-10T08:30:52;4.55;;;2.80;;
20076;SDS011;12348;42.710;23.378;2023-06-10T08:33:19;5.55;;;2.53;;
20076;SDS011;12348;42.710;23.378;2023-06-10T08:35:45;3.33;;;2.60;;
20076;SDS011;12348;42.710;23.378;2023-06-10T08:38:12;3.10;;;2.53;;
20076;SDS011;12348;42.710;23.378;2023-06-10T08:40:39;5.72;;;2.80;;
20076;SDS011;12348;42.710;23.378;2023-06-10T08:43:06;3.10;;;2.72;;
20076;SDS011;12348;42.710;23.378;2023-06-10T08:45:35;5.10;;;2.70;;
20076;SDS011;12348;42.710;23.378;2023-06-10T08:48:04;3.50;;;2.80;;
20076;SDS011;12348;42.710;23.378;2023-06-10T08:50:33;4.03;;;2.50;;
20076;SDS011;12348;42.710;23.378;2023-06-10T08:53:01;3.78;;;2.60;;
20076;SDS011;12348;42.710;23.378;2023-06-10T08:55:31;4.75;;;3.05;;
20076;SDS011;12348;42.710;23.378;2023-06-10T08:57:59;4.20;;;2.92;;
20076;SDS011;12348;42.710;23.378;2023-06-10T09:00:26;2.95;;;2.60;;
20076;SDS011;12348;42.710;23.378;2023-06-10T09:02:53;3.13;;;2.55;;
20076;SDS011;12348;42.710;23.378;2023-06-10T09:05:24;3.45;;;2.15;;
20076;SDS011;12348;42.710;23.378;2023-06-10T09:07:53;5.25;;;2.70;;
20076;SDS011;12348;42.710;23.378;2023-06-10T09:10:23;5.05;;;3.40;;
20076;SDS011;12348;42.710;23.378;2023-06-10T09:12:50;4.00;;;3.03;;
20076;SDS011;12348;42.710;23.378;2023-06-10T09:15:17;6.25;;;2.95;;
20076;SDS011;12348;42.710;23.378;2023-06-10T09:17:44;3.20;;;2.40;;
20076;SDS011;12348;42.710;23.378;2023-06-10T09:20:13;2.75;;;2.40;;
20076;SDS011;12348;42.710;23.378;2023-06-10T09:22:42;4.13;;;2.70;;
20076;SDS011;12348;42.710;23.378;2023-06-10T09:25:09;4.15;;;2.83;;
20076;SDS011;12348;42.710;23.378;2023-06-10T09:27:43;4.90;;;3.20;;
20076;SDS011;12348;42.710;23.378;2023-06-10T09:30:24;3.80;;;3.28;;
20076;SDS011;12348;42.710;23.378;2023-06-10T09:32:52;3.72;;;3.10;;
20076;SDS011;12348;42.710;23.378;2023-06-10T09:35:21;5.85;;;3.03;;
20076;SDS011;12348;42.710;23.378;2023-06-10T09:37:51;3.83;;;3.13;;
20076;SDS011;12348;42.710;23.378;2023-06-10T09:40:19;4.35;;;3.20;;
20076;SDS011;12348;42.710;23.378;2023-06-10T09:42:46;4.30;;;3.38;;
20076;SDS011;12348;42.710;23.378;2023-06-10T09:45:18;5.18;;;2.83;;
20076;SDS011;12348;42.710;23.378;2023-06-10T09:47:45;5.30;;;3.28;;
20076;SDS011;12348;42.710;23.378;2023-06-10T09:50:13;5.68;;;3.28;;
20076;SDS011;12348;42.710;23.378;2023-06-10T09:52:40;4.40;;;2.92;;
20076;SDS011;12348;42.710;23.378;2023-06-10T09:55:09;8.38;;;4.85;;
20076;SDS011;12348;42.710;23.378;2023-06-10T09:57:36;3.03;;;2.60;;
20076;SDS011;12348;42.710;23.378;2023-06-10T10:00:04;3.13;;;2.70;;
20076;SDS011;12348;42.710;23.378;2023-06-10T10:02:32;3.22;;;2.92;;
20076;SDS011;12348;42.710;23.378;2023-06-10T10:05:10;3.50;;;3.10;;
20076;SDS011;12348;42.710;23.378;2023-06-10T10:07:39;5.75;;;3.42;;
20076;SDS011;12348;42.710;23.378;2023-06-10T10:10:06;5.63;;;4.40;;
20076;SDS011;12348;42.710;23.378;2023-06-10T10:12:35;3.78;;;2.85;;
20076;SDS011;12348;42.710;23.378;2023-06-10T10:15:04;9.45;;;4.20;;
20076;SDS011;12348;42.710;23.378;2023-06-10T10:17:34;7.88;;;5.15;;
20076;SDS011;12348;42.710;23.378;2023-06-10T10:20:03;5.43;;;4.10;;
20076;SDS011;12348;42.710;23.378;2023-06-10T10:22:37;3.92;;;3.40;;
20076;SDS011;12348;42.710;23.378;2023-06-10T10:25:07;4.45;;;3.88;;
20076;SDS011;12348;42.710;23.378;2023-06-10T10:27:40;5.93;;;3.15;;
20076;SDS011;12348;42.710;23.378;2023-06-10T10:30:11;6.10;;;4.20;;
20076;SDS011;12348;42.710;23.378;2023-06-10T10:32:42;3.25;;;2.70;;
20076;SDS011;12348;42.710;23.378;2023-06-10T10:35:14;5.70;;;3.38;;
20076;SDS011;12348;42.710;23.378;2023-06-10T10:37:43;4.22;;;3.67;;
20076;SDS011;12348;42.710;23.378;2023-06-10T10:40:11;5.28;;;4.18;;
20076;SDS011;12348;42.710;23.378;2023-06-10T10:42:41;5.37;;;3.57;;
20076;SDS011;12348;42.710;23.378;2023-06-10T10:45:09;4.00;;;3.40;;
20076;SDS011;12348;42.710;23.378;2023-06-10T10:47:37;3.80;;;3.20;;
20076;SDS011;12348;42.710;23.378;2023-06-10T10:50:12;6.17;;;3.73;;
20076;SDS011;12348;42.710;23.378;2023-06-10T10:52:46;5.80;;;3.63;;
20076;SDS011;12348;42.710;23.378;2023-06-10T10:55:20;3.80;;;3.13;;
20076;SDS011;12348;42.710;23.378;2023-06-10T10:57:54;5.63;;;3.67;;
20076;SDS011;12348;42.710;23.378;2023-06-10T11:00:29;6.80;;;3.67;;
20076;SDS011;12348;42.710;23.378;2023-06-10T11:03:03;6.70;;;3.67;;
20076;SDS011;12348;42.710;23.378;2023-06-10T11:05:35;5.60;;;3.90;;
20076;SDS011;12348;42.710;23.378;2023-06-10T11:11:19;4.27;;;3.40;;
20076;SDS011;12348;42.710;23.378;2023-06-10T11:14:06;3.77;;;2.73;;
20076;SDS011;12348;42.710;23.378;2023-06-10T11:16:38;4.57;;;3.87;;
20076;SDS011;12348;42.710;23.378;2023-06-10T11:19:06;3.13;;;2.63;;
20076;SDS011;12348;42.710;23.378;2023-06-10T11:21:37;3.90;;;2.90;;
20076;SDS011;12348;42.710;23.378;2023-06-10T11:24:23;3.57;;;2.50;;
20076;SDS011;12348;42.710;23.378;2023-06-10T11:26:51;3.53;;;2.93;;
20076;SDS011;12348;42.710;23.378;2023-06-10T11:29:19;3.60;;;3.07;;
20076;SDS011;12348;42.710;23.378;2023-06-10T11:31:48;4.77;;;3.57;;
20076;SDS011;12348;42.710;23.378;2023-06-10T11:34:23;3.33;;;2.93;;
20076;SDS011;12348;42.710;23.378;2023-06-10T11:36:52;4.33;;;3.00;;
20076;SDS011;12348;42.710;23.378;2023-06-10T11:39:20;3.80;;;2.57;;
20076;SDS011;12348;42.710;23.378;2023-06-10T11:41:51;2.77;;;2.10;;
20076;SDS011;12348;42.710;23.378;2023-06-10T11:44:20;3.23;;;2.93;;
20076;SDS011;12348;42.710;23.378;2023-06-10T11:46:47;3.70;;;2.93;;
20076;SDS011;12348;42.710;23.378;2023-06-10T11:49:16;3.53;;;2.87;;
20076;SDS011;12348;42.710;23.378;2023-06-10T11:51:43;3.57;;;2.87;;
20076;SDS011;12348;42.710;23.378;2023-06-10T11:54:14;3.60;;;2.70;;
20076;SDS011;12348;42.710;23.378;2023-06-10T11:56:42;3.67;;;2.77;;
20076;SDS011;12348;42.710;23.378;2023-06-10T11:59:09;3.63;;;2.50;;
20076;SDS011;12348;42.710;23.378;2023-06-10T12:01:38;5.90;;;3.37;;
20076;SDS011;12348;42.710;23.378;2023-06-10T12:04:09;3.77;;;2.97;;
20076;SDS011;12348;42.710;23.378;2023-06-10T12:06:37;3.70;;;3.07;;
20076;SDS011;12348;42.710;23.378;2023-06-10T12:09:06;4.00;;;2.63;;
20076;SDS011;12348;42.710;23.378;2023-06-10T12:11:33;4.13;;;3.00;;
20076;SDS011;12348;42.710;23.378;2023-06-10T12:14:00;3.60;;;2.53;;
20076;SDS011;12348;42.710;23.378;2023-06-10T12:16:28;4.63;;;2.50;;
20076;SDS011;12348;42.710;23.378;2023-06-10T12:19:01;3.10;;;2.70;;
20076;SDS011;12348;42.710;23.378;2023-06-10T12:21:29;3.10;;;2.60;;
20076;SDS011;12348;42.710;23.378;2023-06-10T12:24:01;5.10;;;2.40;;
20076;SDS011;12348;42.710;23.378;2023-06-10T12:26:36;3.93;;;2.40;;
20076;SDS011;12348;42.710;23.378;2023-06-10T12:29:17;4.20;;;3.17;;
20076;SDS011;12348;42.710;23.378;2023-06-10T12:31:52;4.13;;;2.77;;
20076;SDS011;12348;42.710;23.378;2023-06-10T12:34:21;8.47;;;5.67;;
20076;SDS011;12348;42.710;23.378;2023-06-10T12:36:55;3.83;;;2.87;;
20076;SDS011;12348;42.710;23.378;2023-06-10T12:39:21;5.33;;;3.07;;
20076;SDS011;12348;42.710;23.378;2023-06-10T12:41:48;4.10;;;2.73;;
20076;SDS011;12348;42.710;23.378;2023-06-10T12:44:15;4.10;;;3.30;;
20076;SDS011;12348;42.710;23.378;2023-06-10T12:46:42;3.80;;;3.07;;
20076;SDS011;12348;42.710;23.378;2023-06-10T12:49:18;6.63;;;3.13;;
20076;SDS011;12348;42.710;23.378;2023-06-10T12:51:49;3.67;;;2.83;;
20076;SDS011;12348;42.710;23.378;2023-06-10T12:54:16;7.50;;;4.07;;
20076;SDS011;12348;42.710;23.378;2023-06-10T12:56:43;3.20;;;2.73;;
20076;SDS011;12348;42.710;23.378;2023-06-10T12:59:10;4.37;;;3.20;;
20076;SDS011;12348;42.710;23.378;2023-06-10T13:01:37;4.20;;;3.67;;
20076;SDS011;12348;42.710;23.378;2023-06-10T13:04:04;5.10;;;2.30;;
20076;SDS011;12348;42.710;23.378;2023-06-10T13:06:33;3.63;;;3.00;;
20076;SDS011;12348;42.710;23.378;2023-06-10T13:09:05;9.63;;;5.80;;
20076;SDS011;12348;42.710;23.378;2023-06-10T13:11:33;8.30;;;4.93;;
20076;SDS011;12348;42.710;23.378;2023-06-10T13:14:00;6.77;;;3.87;;
20076;SDS011;12348;42.710;23.378;2023-06-10T13:16:27;7.20;;;4.63;;
20076;SDS011;12348;42.710;23.378;2023-06-10T13:18:55;3.10;;;2.30;;
20076;SDS011;12348;42.710;23.378;2023-06-10T13:21:22;6.20;;;3.17;;
20076;SDS011;12348;42.710;23.378;2023-06-10T13:23:51;6.00;;;3.10;;
20076;SDS011;12348;42.710;23.378;2023-06-10T13:26:19;11.70;;;3.50;;
20076;SDS011;12348;42.710;23.378;2023-06-10T13:28:45;12.10;;;5.20;;
20076;SDS011;12348;42.710;23.378;2023-06-10T13:31:12;6.07;;;4.37;;
20076;SDS011;12348;42.710;23.378;2023-06-10T13:33:39;6.17;;;3.87;;
20076;SDS011;12348;42.710;23.378;2023-06-10T13:36:08;7.07;;;5.10;;
20076;SDS011;12348;42.710;23.378;2023-06-10T13:38:35;9.47;;;6.03;;
20076;SDS011;12348;42.710;23.378;2023-06-10T13:41:03;10.97;;;5.30;;
20076;SDS011;12348;42.710;23.378;2023-06-10T13:43:30;8.30;;;4.90;;
20076;SDS011;12348;42.710;23.378;2023-06-10T13:45:57;14.13;;;5.50;;
20076;SDS011;12348;42.710;23.378;2023-06-10T13:48:24;10.10;;;4.93;;
20076;SDS011;12348;42.710;23.378;2023-06-10T13:50:51;6.50;;;4.67;;
20076;SDS011;12348;42.710;23.378;2023-06-10T13:53:17;7.80;;;4.40;;
20076;SDS011;12348;42.710;23.378;2023-06-10T13:55:44;8.87;;;4.33;;
20076;SDS011;12348;42.710;23.378;2023-06-10T13:58:12;10.00;;;5.17;;
20076;SDS011;12348;42.710;23.378;2023-06-10T14:00:39;11.87;;;4.67;;
20076;SDS011;12348;42.710;23.378;2023-06-10T14:03:06;10.17;;;4.90;;
20076;SDS011;12348;42.710;23.378;2023-06-10T14:05:33;6.17;;;4.67;;
20076;SDS011;12348;42.710;23.378;2023-06-10T14:08:00;8.70;;;6.03;;
20076;SDS011;12348;42.710;23.378;2023-06-10T14:10:28;7.57;;;4.77;;
20076;SDS011;12348;42.710;23.378;2023-06-10T14:12:54;5.93;;;4.53;;
20076;SDS011;12348;42.710;23.378;2023-06-10T14:15:23;8.03;;;4.50;;
20076;SDS011;12348;42.710;23.378;2023-06-10T14:17:49;11.97;;;6.70;;
20076;SDS011;12348;42.710;23.378;2023-06-10T14:20:16;14.70;;;7.23;;
20076;SDS011;12348;42.710;23.378;2023-06-10T14:22:43;10.33;;;4.80;;
20076;SDS011;12348;42.710;23.378;2023-06-10T14:25:10;9.13;;;5.43;;
20076;SDS011;12348;42.710;23.378;2023-06-10T14:27:37;13.07;;;5.20;;
20076;SDS011;12348;42.710;23.378;2023-06-10T14:30:04;5.10;;;3.70;;
20076;SDS011;12348;42.710;23.378;2023-06-10T14:32:33;8.87;;;5.10;;